Map

Track Data

SID SEASON NUMBER BASIN SUBBASIN NAME ISO_TIME NATURE LAT LON WMO_WIND WMO_PRES WMO_AGENCY TRACK_TYPE DIST2LAND LANDFALL IFLAG USA_AGENCY USA_ATCF_ID USA_LAT USA_LON USA_RECORD USA_STATUS USA_WIND USA_PRES USA_SSHS USA_R34_NE USA_R34_SE USA_R34_SW USA_R34_NW USA_R50_NE USA_R50_SE USA_R50_SW USA_R50_NW USA_R64_NE USA_R64_SE USA_R64_SW USA_R64_NW USA_POCI USA_ROCI USA_RMW USA_EYE TOKYO_LAT TOKYO_LON TOKYO_GRADE TOKYO_WIND TOKYO_PRES TOKYO_R50_DIR TOKYO_R50_LONG TOKYO_R50_SHORT TOKYO_R30_DIR TOKYO_R30_LONG TOKYO_R30_SHORT TOKYO_LAND CMA_LAT CMA_LON CMA_CAT CMA_WIND CMA_PRES HKO_LAT HKO_LON HKO_CAT HKO_WIND HKO_PRES NEWDELHI_LAT NEWDELHI_LON NEWDELHI_GRADE NEWDELHI_WIND NEWDELHI_PRES NEWDELHI_CI NEWDELHI_DP NEWDELHI_POCI REUNION_LAT REUNION_LON REUNION_TYPE REUNION_WIND REUNION_PRES REUNION_TNUM REUNION_CI REUNION_RMW REUNION_R34_NE REUNION_R34_SE REUNION_R34_SW REUNION_R34_NW REUNION_R50_NE REUNION_R50_SE REUNION_R50_SW REUNION_R50_NW REUNION_R64_NE REUNION_R64_SE REUNION_R64_SW REUNION_R64_NW BOM_LAT BOM_LON BOM_TYPE BOM_WIND BOM_PRES BOM_TNUM BOM_CI BOM_RMW BOM_R34_NE BOM_R34_SE BOM_R34_SW BOM_R34_NW BOM_R50_NE BOM_R50_SE BOM_R50_SW BOM_R50_NW BOM_R64_NE BOM_R64_SE BOM_R64_SW BOM_R64_NW BOM_ROCI BOM_POCI BOM_EYE BOM_POS_METHOD BOM_PRES_METHOD NADI_LAT NADI_LON NADI_CAT NADI_WIND NADI_PRES WELLINGTON_LAT WELLINGTON_LON WELLINGTON_WIND WELLINGTON_PRES DS824_LAT DS824_LON DS824_STAGE DS824_WIND DS824_PRES TD9636_LAT TD9636_LON TD9636_STAGE TD9636_WIND TD9636_PRES TD9635_LAT TD9635_LON TD9635_WIND TD9635_PRES TD9635_ROCI NEUMANN_LAT NEUMANN_LON NEUMANN_CLASS NEUMANN_WIND NEUMANN_PRES MLC_LAT MLC_LON MLC_CLASS MLC_WIND MLC_PRES USA_GUST BOM_GUST BOM_GUST_PER REUNION_GUST REUNION_GUST_PER USA_SEAHGT USA_SEARAD_NE USA_SEARAD_SE USA_SEARAD_SW USA_SEARAD_NW STORM_SPEED STORM_DIR
1937254N18090 1937 43 NI BB NOT_NAMED 1937-09-11 00:00:00 TS 18.1000 90.1000 main 367 360 _________O____ -1 18.1000 90.1000 TC 30 5 333
1937254N18090 1937 43 NI BB NOT_NAMED 1937-09-11 03:00:00 TS 18.3384 89.9684 main 361 343 _________PO___ -1 18.4575 89.9026 TC 30 18.1000 90.1000 1 6 331
1937254N18090 1937 43 NI BB NOT_NAMED 1937-09-11 06:00:00 TS 18.6582 89.7766 main 332 295 _________OP___ -1 18.8000 89.7000 TC 30 18.4455 89.8914 1 7 330
1937254N18090 1937 43 NI BB NOT_NAMED 1937-09-11 09:00:00 TS 18.9726 89.5754 main 295 270 _________PP___ -1 19.1150 89.4925 TC 30 18.7828 89.6859 1 7 329
1937254N18090 1937 43 NI BB NOT_NAMED 1937-09-11 12:00:00 TS 19.2518 89.3937 main 259 235 _________OP___ -1 19.4000 89.3000 TC 30 19.1036 89.4874 1 7 329
1937254N18090 1937 43 NI BB NOT_NAMED 1937-09-11 15:00:00 TS 19.5287 89.2249 main 235 201 _________PO___ -1 19.6574 89.1499 TC 30 19.4000 89.3000 1 6 330
1937254N18090 1937 43 NI BB NOT_NAMED 1937-09-11 18:00:00 TS 19.7837 89.0627 main 201 178 _________OP___ -1 19.9000 89.0000 TC 30 19.6673 89.1255 1 6 327
1937254N18090 1937 43 NI BB NOT_NAMED 1937-09-11 21:00:00 TS 20.0286 88.8821 main 178 146 _________PP___ -1 20.1425 88.8074 TC 30 19.9148 88.9569 1 6 325
1937254N18090 1937 43 NI BB NOT_NAMED 1937-09-12 00:00:00 TS 20.2774 88.6924 main 146 123 _________OP___ -1 20.4000 88.6000 TC 30 20.1548 88.7848 1 6 326
1937254N18090 1937 43 NI BB NOT_NAMED 1937-09-12 03:00:00 TS 20.5500 88.5037 main 123 89 _________PO___ -1 20.6999 88.4074 TC 30 20.4000 88.6000 1 7 326
1937254N18090 1937 43 NI BB NOT_NAMED 1937-09-12 06:00:00 TS 20.8400 88.2907 main 89 56 _________OP___ -1 21.0000 88.2000 TC 30 20.6801 88.3814 1 7 323
1937254N18090 1937 43 NI BB NOT_NAMED 1937-09-12 09:00:00 TS 21.1151 88.0464 main 59 33 _________PP___ -1 21.2650 87.9425 TC 30 20.9651 88.1502 1 7 320
1937254N18090 1937 43 NI BB NOT_NAMED 1937-09-12 12:00:00 TS 21.3713 87.8094 main 33 11 _________OP___ -1 21.5000 87.7000 TC 30 21.2426 87.9189 1 6 321
1937254N18090 1937 43 NI BB NOT_NAMED 1937-09-12 15:00:00 TS 21.6037 87.6212 main 11 0 _________PO___ -1 21.7074 87.5423 TC 30 21.5000 87.7000 1 5 325
1937254N18090 1937 43 NI BB NOT_NAMED 1937-09-12 18:00:00 TS 21.7960 87.4950 main 0 0 _________OP___ -1 21.9000 87.4000 TC 30 21.6919 87.5899 1 4 328
1937254N18090 1937 43 NI BB NOT_NAMED 1937-09-12 21:00:00 TS 21.9650 87.3781 main 0 0 _________PP___ -1 22.0621 87.2742 TC 30 21.8679 87.4819 1 5 321
1937254N18090 1937 43 NI BB NOT_NAMED 1937-09-13 00:00:00 TS 22.1800 87.1540 main 0 0 _________OP___ -1 22.3000 87.0000 TC 30 22.0601 87.3080 1 8 312
1937254N18090 1937 43 NI BB NOT_NAMED 1937-09-13 03:00:00 TS 22.5176 86.7129 main 0 0 _________PO___ -1 22.7353 86.4257 TC 30 22.3000 87.0000 1 12 307
1937254N18090 1937 43 NI BB NOT_NAMED 1937-09-13 06:00:00 TS 22.9229 86.0933 main 0 0 _________OP___ -1 23.2000 85.7000 TC 30 22.6457 86.4866 1 14 303
1937254N18090 1937 43 NI BB NOT_NAMED 1937-09-13 09:00:00 TS 23.2828 85.4233 main 0 0 _________PP___ -1 23.5297 85.0145 TC 30 23.0359 85.8321 1 15 298
1937254N18090 1937 43 NI BB NOT_NAMED 1937-09-13 12:00:00 TS 23.6165 84.6932 main 0 0 _________OP___ -1 23.8000 84.3000 TC 30 23.4329 85.0863 1 15 295
1937254N18090 1937 43 NI BB NOT_NAMED 1937-09-13 15:00:00 TS 23.9286 83.9323 main 0 0 _________PO___ -1 24.0571 83.5646 TC 30 23.8000 84.3000 1 15 292
1937254N18090 1937 43 NI BB NOT_NAMED 1937-09-13 18:00:00 TS 24.1975 83.1523 main 0 0 _________OP___ -1 24.3000 82.8000 TC 30 24.0951 83.5046 1 16 290
1937254N18090 1937 43 NI BB NOT_NAMED 1937-09-13 21:00:00 TS 24.4560 82.3261 main 0 0 _________PP___ -1 24.5578 81.9626 TC 30 24.3541 82.6896 1 15 289
1937254N18090 1937 43 NI BB NOT_NAMED 1937-09-14 00:00:00 TS 24.6929 81.5524 main 0 0 _________OP___ -1 24.8000 81.2000 TC 30 24.5859 81.9048 1 14 289
1937254N18090 1937 43 NI BB NOT_NAMED 1937-09-14 03:00:00 TS 24.9034 80.9235 main 0 0 _________PO___ -1 25.0068 80.6471 TC 30 24.8000 81.2000 1 11 291
1937254N18090 1937 43 NI BB NOT_NAMED 1937-09-14 06:00:00 TS 25.0921 80.4063 main 0 0 _________OP___ -1 25.2000 80.2000 TC 30 24.9842 80.6126 1 10 292
1937254N18090 1937 43 NI BB NOT_NAMED 1937-09-14 09:00:00 TS 25.2690 79.9200 main 0 0 _________PP___ -1 25.3774 79.7272 TC 30 25.1605 80.1127 1 9 295
1937254N18090 1937 43 NI BB NOT_NAMED 1937-09-14 12:00:00 TS 25.4783 79.4908 main 0 0 _________OP___ -1 25.6000 79.3000 TC 30 25.3566 79.6816 1 9 304
1937254N18090 1937 43 NI BB NOT_NAMED 1937-09-14 15:00:00 TS 25.7599 79.1137 main 0 0 _________PO___ -1 25.9199 78.9274 TC 30 25.6000 79.3000 1 9 314
1937254N18090 1937 43 NI BB NOT_NAMED 1937-09-14 18:00:00 TS 26.0772 78.8002 main 0 0 _________OP___ -1 26.3000 78.6000 TC 30 25.9102 78.9504 1 9 321
1937254N18090 1937 43 NI BB NOT_NAMED 1937-09-14 21:00:00 TS 26.4447 78.4917 main 0 0 _________PP___ -1 26.6976 78.2954 TC 30 26.2761 78.6226 1 9 324
1937254N18090 1937 43 NI BB NOT_NAMED 1937-09-15 00:00:00 TS 26.8193 78.2057 main 0 0 _________OP___ -1 27.1000 78.0000 TC 30 26.6790 78.3085 1 8 326
1937254N18090 1937 43 NI AS NOT_NAMED 1937-09-15 03:00:00 NR 27.1000 78.0000 main 0 __________O___ -1 TC 27.1000 78.0000 1 7 327

About IBTrACS Database

This database is a web-friendly format of International Best Track Archive for Climate Stewardship (IBTrACS), a global best track data archive curated by NOAA dating back to 1842.

Updated: 2021-11-26